PFYU

Fort Yukon Airport

Airport
ICAO code
PFYU
IATA Code
FYU
Summary
ICAO Region
NAM
ICAO Territory
Location

, Alaska

Serving
Fort Yukon
Elevation
433 ft
Coordinates
66° 34' 17" N , 145° 15' 2" W
Metar
PFYU 251556Z 20003KT 9SM FEW075 FEW100 19/11 A2998 RMK AO2 SLP159 T01890111

Runways

Designator Length Width Surface Rops
4/22 1771 46 GRVL-G No/No

Airport map

Aerial View

SKYbrary Partners:

Safety knowledge contributed by: